sensor_id;sensor_type;location;lat;lon;timestamp;temperature;humidity
52381;DHT22;38310;52.796;6.942;2023-03-01T00:01:27;-1.80;99.90
52381;DHT22;38310;52.796;6.942;2023-03-01T00:03:53;0.20;99.90
52381;DHT22;38310;52.796;6.942;2023-03-01T00:06:20;0.00;99.90
52381;DHT22;38310;52.796;6.942;2023-03-01T00:08:46;-1.30;99.90
52381;DHT22;38310;52.796;6.942;2023-03-01T00:11:15;-0.30;99.90
52381;DHT22;38310;52.796;6.942;2023-03-01T00:13:43;-0.40;99.90
52381;DHT22;38310;52.796;6.942;2023-03-01T00:16:13;-1.90;99.90
52381;DHT22;38310;52.796;6.942;2023-03-01T00:18:39;-1.90;99.90
52381;DHT22;38310;52.796;6.942;2023-03-01T00:21:05;-0.30;99.90
52381;DHT22;38310;52.796;6.942;2023-03-01T00:23:33;0.10;99.90
52381;DHT22;38310;52.796;6.942;2023-03-01T00:25:59;-0.30;99.90
52381;DHT22;38310;52.796;6.942;2023-03-01T00:28:25;-3.50;99.90
52381;DHT22;38310;52.796;6.942;2023-03-01T00:30:51;-1.70;99.90
52381;DHT22;38310;52.796;6.942;2023-03-01T00:33:17;-2.00;99.90
52381;DHT22;38310;52.796;6.942;2023-03-01T00:35:42;-1.30;99.90
52381;DHT22;38310;52.796;6.942;2023-03-01T00:38:08;-0.90;99.90
52381;DHT22;38310;52.796;6.942;2023-03-01T00:40:35;-2.00;99.90
52381;DHT22;38310;52.796;6.942;2023-03-01T00:43:01;-1.00;99.90
52381;DHT22;38310;52.796;6.942;2023-03-01T00:45:27;-2.00;99.90
52381;DHT22;38310;52.796;6.942;2023-03-01T00:47:53;-2.10;99.90
52381;DHT22;38310;52.796;6.942;2023-03-01T00:50:19;-2.10;99.90
52381;DHT22;38310;52.796;6.942;2023-03-01T00:52:45;-2.10;99.90
52381;DHT22;38310;52.796;6.942;2023-03-01T00:55:11;-1.90;99.90
52381;DHT22;38310;52.796;6.942;2023-03-01T00:57:37;-0.50;99.90
52381;DHT22;38310;52.796;6.942;2023-03-01T01:00:05;-2.10;99.90
52381;DHT22;38310;52.796;6.942;2023-03-01T01:02:33;-2.10;99.90
52381;DHT22;38310;52.796;6.942;2023-03-01T01:04:59;-2.10;99.90
52381;DHT22;38310;52.796;6.942;2023-03-01T01:07:25;-2.20;99.90
52381;DHT22;38310;52.796;6.942;2023-03-01T01:09:50;0.00;99.90
52381;DHT22;38310;52.796;6.942;2023-03-01T01:12:16;-2.30;99.90
52381;DHT22;38310;52.796;6.942;2023-03-01T01:14:42;-2.30;99.90
52381;DHT22;38310;52.796;6.942;2023-03-01T01:17:08;-2.20;99.90
52381;DHT22;38310;52.796;6.942;2023-03-01T01:19:33;-2.30;99.90
52381;DHT22;38310;52.796;6.942;2023-03-01T01:21:59;-2.30;99.90
52381;DHT22;38310;52.796;6.942;2023-03-01T01:24:25;-1.00;99.90
52381;DHT22;38310;52.796;6.942;2023-03-01T01:26:51;-2.30;99.90
52381;DHT22;38310;52.796;6.942;2023-03-01T01:29:17;-2.30;99.90
52381;DHT22;38310;52.796;6.942;2023-03-01T01:31:43;-1.90;99.90
52381;DHT22;38310;52.796;6.942;2023-03-01T01:34:14;-1.90;99.90
52381;DHT22;38310;52.796;6.942;2023-03-01T01:36:40;-2.40;99.90
52381;DHT22;38310;52.796;6.942;2023-03-01T01:39:06;-2.40;99.90
52381;DHT22;38310;52.796;6.942;2023-03-01T01:41:33;-0.10;99.90
52381;DHT22;38310;52.796;6.942;2023-03-01T01:44:25;-1.10;99.90
52381;DHT22;38310;52.796;6.942;2023-03-01T01:47:03;-2.40;99.90
52381;DHT22;38310;52.796;6.942;2023-03-01T01:49:54;-1.70;99.90
52381;DHT22;38310;52.796;6.942;2023-03-01T01:52:34;-2.40;99.90
52381;DHT22;38310;52.796;6.942;2023-03-01T01:55:17;-2.40;99.90
52381;DHT22;38310;52.796;6.942;2023-03-01T01:57:49;-2.40;99.90
52381;DHT22;38310;52.796;6.942;2023-03-01T02:00:19;-2.40;99.90
52381;DHT22;38310;52.796;6.942;2023-03-01T02:02:47;-2.50;99.90
52381;DHT22;38310;52.796;6.942;2023-03-01T02:05:20;-2.50;99.90
52381;DHT22;38310;52.796;6.942;2023-03-01T02:07:48;-2.50;99.90
52381;DHT22;38310;52.796;6.942;2023-03-01T02:10:15;-2.10;99.90
52381;DHT22;38310;52.796;6.942;2023-03-01T02:12:41;-1.00;99.90
52381;DHT22;38310;52.796;6.942;2023-03-01T02:15:10;-1.10;99.90
52381;DHT22;38310;52.796;6.942;2023-03-01T02:17:43;-2.50;99.90
52381;DHT22;38310;52.796;6.942;2023-03-01T02:22:56;-2.60;99.90
52381;DHT22;38310;52.796;6.942;2023-03-01T02:25:51;-2.60;99.90
52381;DHT22;38310;52.796;6.942;2023-03-01T02:28:38;-2.60;99.90
52381;DHT22;38310;52.796;6.942;2023-03-01T02:31:09;-2.60;99.90
52381;DHT22;38310;52.796;6.942;2023-03-01T02:33:54;-2.70;99.90
52381;DHT22;38310;52.796;6.942;2023-03-01T02:36:26;-1.30;99.90
52381;DHT22;38310;52.796;6.942;2023-03-01T02:38:57;-2.70;99.90
52381;DHT22;38310;52.796;6.942;2023-03-01T02:41:25;-2.80;99.90
52381;DHT22;38310;52.796;6.942;2023-03-01T02:43:52;-2.70;99.90
52381;DHT22;38310;52.796;6.942;2023-03-01T02:46:21;-2.10;99.90
52381;DHT22;38310;52.796;6.942;2023-03-01T02:48:50;-1.20;99.90
52381;DHT22;38310;52.796;6.942;2023-03-01T02:56:25;-2.80;99.90
52381;DHT22;38310;52.796;6.942;2023-03-01T02:58:51;-0.80;99.90
52381;DHT22;38310;52.796;6.942;2023-03-01T03:01:19;-1.30;99.90
52381;DHT22;38310;52.796;6.942;2023-03-01T03:03:44;-2.80;99.90
52381;DHT22;38310;52.796;6.942;2023-03-01T03:06:10;-2.80;99.90
52381;DHT22;38310;52.796;6.942;2023-03-01T03:08:36;-1.00;99.90
52381;DHT22;38310;52.796;6.942;2023-03-01T03:11:02;-2.80;99.90
52381;DHT22;38310;52.796;6.942;2023-03-01T03:13:27;-2.00;99.90
52381;DHT22;38310;52.796;6.942;2023-03-01T03:15:57;-2.90;99.90
52381;DHT22;38310;52.796;6.942;2023-03-01T03:18:23;-2.90;99.90
52381;DHT22;38310;52.796;6.942;2023-03-01T03:20:51;-2.90;99.90
52381;DHT22;38310;52.796;6.942;2023-03-01T03:23:19;-2.90;99.90
52381;DHT22;38310;52.796;6.942;2023-03-01T03:25:49;-2.90;99.90
52381;DHT22;38310;52.796;6.942;2023-03-01T03:28:15;-2.90;99.90
52381;DHT22;38310;52.796;6.942;2023-03-01T03:30:42;-2.90;99.90
52381;DHT22;38310;52.796;6.942;2023-03-01T03:33:09;-0.80;99.90
52381;DHT22;38310;52.796;6.942;2023-03-01T03:35:41;-0.90;99.90
52381;DHT22;38310;52.796;6.942;2023-03-01T03:38:10;-2.40;99.90
52381;DHT22;38310;52.796;6.942;2023-03-01T03:40:46;-1.10;99.90
52381;DHT22;38310;52.796;6.942;2023-03-01T03:43:16;-3.00;99.90
52381;DHT22;38310;52.796;6.942;2023-03-01T03:45:44;-3.00;99.90
52381;DHT22;38310;52.796;6.942;2023-03-01T03:48:10;-2.90;99.90
52381;DHT22;38310;52.796;6.942;2023-03-01T03:50:37;-3.00;99.90
52381;DHT22;38310;52.796;6.942;2023-03-01T03:53:07;-2.50;99.90
52381;DHT22;38310;52.796;6.942;2023-03-01T03:55:33;-3.00;99.90
52381;DHT22;38310;52.796;6.942;2023-03-01T03:58:00;-3.00;99.90
52381;DHT22;38310;52.796;6.942;2023-03-01T04:00:33;-3.00;99.90
52381;DHT22;38310;52.796;6.942;2023-03-01T04:02:59;-3.10;99.90
52381;DHT22;38310;52.796;6.942;2023-03-01T04:05:25;-1.10;99.90
52381;DHT22;38310;52.796;6.942;2023-03-01T04:07:50;-3.10;99.90
52381;DHT22;38310;52.796;6.942;2023-03-01T04:10:27;-3.10;99.90
52381;DHT22;38310;52.796;6.942;2023-03-01T04:12:54;-2.40;99.90
52381;DHT22;38310;52.796;6.942;2023-03-01T04:15:22;-3.20;99.90
52381;DHT22;38310;52.796;6.942;2023-03-01T04:17:50;-3.20;99.90
52381;DHT22;38310;52.796;6.942;2023-03-01T04:20:28;-3.10;99.90
52381;DHT22;38310;52.796;6.942;2023-03-01T04:22:58;-3.20;99.90
52381;DHT22;38310;52.796;6.942;2023-03-01T04:25:25;-3.00;99.90
52381;DHT22;38310;52.796;6.942;2023-03-01T04:27:51;-3.20;99.90
52381;DHT22;38310;52.796;6.942;2023-03-01T04:30:17;-3.20;99.90
52381;DHT22;38310;52.796;6.942;2023-03-01T04:32:42;-3.20;99.90
52381;DHT22;38310;52.796;6.942;2023-03-01T04:35:09;-3.20;99.90
52381;DHT22;38310;52.796;6.942;2023-03-01T04:37:35;-2.60;99.90
52381;DHT22;38310;52.796;6.942;2023-03-01T04:40:01;-3.30;99.90
52381;DHT22;38310;52.796;6.942;2023-03-01T04:42:37;-3.30;99.90
52381;DHT22;38310;52.796;6.942;2023-03-01T04:45:04;-3.30;99.90
52381;DHT22;38310;52.796;6.942;2023-03-01T04:47:39;-4.50;99.90
52381;DHT22;38310;52.796;6.942;2023-03-01T04:50:06;-2.40;99.90
52381;DHT22;38310;52.796;6.942;2023-03-01T04:52:31;-3.30;99.90
52381;DHT22;38310;52.796;6.942;2023-03-01T04:54:57;-3.30;99.90
52381;DHT22;38310;52.796;6.942;2023-03-01T04:57:23;-3.20;99.90
52381;DHT22;38310;52.796;6.942;2023-03-01T04:59:48;-3.40;99.90
52381;DHT22;38310;52.796;6.942;2023-03-01T05:02:14;-1.70;99.90
52381;DHT22;38310;52.796;6.942;2023-03-01T05:04:40;-3.40;99.90
52381;DHT22;38310;52.796;6.942;2023-03-01T05:07:05;-3.40;99.90
52381;DHT22;38310;52.796;6.942;2023-03-01T05:09:31;-2.10;99.90
52381;DHT22;38310;52.796;6.942;2023-03-01T05:11:57;-3.40;99.90
52381;DHT22;38310;52.796;6.942;2023-03-01T05:14:23;-2.40;99.90
52381;DHT22;38310;52.796;6.942;2023-03-01T05:16:48;-3.50;99.90
52381;DHT22;38310;52.796;6.942;2023-03-01T05:19:14;-3.40;99.90
52381;DHT22;38310;52.796;6.942;2023-03-01T05:21:48;-3.40;99.90
52381;DHT22;38310;52.796;6.942;2023-03-01T05:24:31;-3.50;99.90
52381;DHT22;38310;52.796;6.942;2023-03-01T05:26:58;-3.50;99.90
52381;DHT22;38310;52.796;6.942;2023-03-01T05:29:25;-3.50;99.90
52381;DHT22;38310;52.796;6.942;2023-03-01T05:31:57;-3.50;99.90
52381;DHT22;38310;52.796;6.942;2023-03-01T05:34:36;-3.50;99.90
52381;DHT22;38310;52.796;6.942;2023-03-01T05:37:02;-3.40;99.90
52381;DHT22;38310;52.796;6.942;2023-03-01T05:39:29;-3.50;99.90
52381;DHT22;38310;52.796;6.942;2023-03-01T05:41:57;-2.70;99.90
52381;DHT22;38310;52.796;6.942;2023-03-01T05:44:24;-3.60;99.90
52381;DHT22;38310;52.796;6.942;2023-03-01T05:46:50;-3.60;99.90
52381;DHT22;38310;52.796;6.942;2023-03-01T05:49:17;-3.60;99.90
52381;DHT22;38310;52.796;6.942;2023-03-01T05:51:48;-3.70;99.90
52381;DHT22;38310;52.796;6.942;2023-03-01T05:54:15;-3.30;99.90
52381;DHT22;38310;52.796;6.942;2023-03-01T05:56:40;-3.60;99.90
52381;DHT22;38310;52.796;6.942;2023-03-01T05:59:06;-3.70;99.90
52381;DHT22;38310;52.796;6.942;2023-03-01T06:01:33;-3.10;99.90
52381;DHT22;38310;52.796;6.942;2023-03-01T06:03:58;-3.40;99.90
52381;DHT22;38310;52.796;6.942;2023-03-01T06:06:24;-3.70;99.90
52381;DHT22;38310;52.796;6.942;2023-03-01T06:08:51;-1.60;99.90
52381;DHT22;38310;52.796;6.942;2023-03-01T06:11:17;-1.60;99.90
52381;DHT22;38310;52.796;6.942;2023-03-01T06:13:44;-3.60;99.90
52381;DHT22;38310;52.796;6.942;2023-03-01T06:16:10;-3.70;99.90
52381;DHT22;38310;52.796;6.942;2023-03-01T06:18:36;-2.70;99.90
52381;DHT22;38310;52.796;6.942;2023-03-01T06:21:03;-3.50;99.90
52381;DHT22;38310;52.796;6.942;2023-03-01T06:23:29;-3.70;99.90
52381;DHT22;38310;52.796;6.942;2023-03-01T06:25:55;-3.70;99.90
52381;DHT22;38310;52.796;6.942;2023-03-01T06:28:21;-3.70;99.90
52381;DHT22;38310;52.796;6.942;2023-03-01T06:30:47;-3.70;99.90
52381;DHT22;38310;52.796;6.942;2023-03-01T06:33:13;-3.70;99.90
52381;DHT22;38310;52.796;6.942;2023-03-01T06:35:38;-1.30;99.90
52381;DHT22;38310;52.796;6.942;2023-03-01T06:38:04;-1.50;99.90
52381;DHT22;38310;52.796;6.942;2023-03-01T06:40:30;-3.40;99.90
52381;DHT22;38310;52.796;6.942;2023-03-01T06:42:57;-3.70;99.90
52381;DHT22;38310;52.796;6.942;2023-03-01T06:45:22;-3.70;99.90
52381;DHT22;38310;52.796;6.942;2023-03-01T06:47:49;-3.80;99.90
52381;DHT22;38310;52.796;6.942;2023-03-01T06:50:15;-3.70;99.90
52381;DHT22;38310;52.796;6.942;2023-03-01T06:52:41;-3.70;99.90
52381;DHT22;38310;52.796;6.942;2023-03-01T06:55:09;-3.60;99.90
52381;DHT22;38310;52.796;6.942;2023-03-01T06:57:35;-3.80;99.90
52381;DHT22;38310;52.796;6.942;2023-03-01T07:00:02;-3.60;99.90
52381;DHT22;38310;52.796;6.942;2023-03-01T07:02:28;-3.60;99.90
52381;DHT22;38310;52.796;6.942;2023-03-01T07:04:54;-3.60;99.90
52381;DHT22;38310;52.796;6.942;2023-03-01T07:07:19;-2.00;99.90
52381;DHT22;38310;52.796;6.942;2023-03-01T07:09:46;-3.50;99.90
52381;DHT22;38310;52.796;6.942;2023-03-01T07:12:12;-3.50;99.90
52381;DHT22;38310;52.796;6.942;2023-03-01T07:14:38;-3.50;99.90
52381;DHT22;38310;52.796;6.942;2023-03-01T07:17:04;-3.10;99.90
52381;DHT22;38310;52.796;6.942;2023-03-01T07:19:29;-3.40;99.90
52381;DHT22;38310;52.796;6.942;2023-03-01T07:21:55;-3.30;99.90
52381;DHT22;38310;52.796;6.942;2023-03-01T07:24:21;-2.20;99.90
52381;DHT22;38310;52.796;6.942;2023-03-01T07:26:51;-3.20;99.90
52381;DHT22;38310;52.796;6.942;2023-03-01T07:29:17;-3.10;99.90
52381;DHT22;38310;52.796;6.942;2023-03-01T07:31:44;-3.10;99.90
52381;DHT22;38310;52.796;6.942;2023-03-01T07:34:09;-2.50;99.90
52381;DHT22;38310;52.796;6.942;2023-03-01T07:36:36;-2.90;99.90
52381;DHT22;38310;52.796;6.942;2023-03-01T07:39:02;-2.80;99.90
52381;DHT22;38310;52.796;6.942;2023-03-01T07:41:29;-2.80;99.90
52381;DHT22;38310;52.796;6.942;2023-03-01T07:43:54;-2.40;99.90
52381;DHT22;38310;52.796;6.942;2023-03-01T07:46:20;-1.30;99.90
52381;DHT22;38310;52.796;6.942;2023-03-01T07:48:46;-2.50;99.90
52381;DHT22;38310;52.796;6.942;2023-03-01T07:51:12;-2.60;99.90
52381;DHT22;38310;52.796;6.942;2023-03-01T07:53:38;-2.00;99.90
52381;DHT22;38310;52.796;6.942;2023-03-01T07:58:31;-2.20;99.90
52381;DHT22;38310;52.796;6.942;2023-03-01T08:01:00;-2.00;99.90
52381;DHT22;38310;52.796;6.942;2023-03-01T08:03:26;-1.90;99.90
52381;DHT22;38310;52.796;6.942;2023-03-01T08:05:52;-0.30;99.90
52381;DHT22;38310;52.796;6.942;2023-03-01T08:08:17;-1.80;99.90
52381;DHT22;38310;52.796;6.942;2023-03-01T08:10:43;-1.50;99.90
52381;DHT22;38310;52.796;6.942;2023-03-01T08:13:09;-1.30;99.90
52381;DHT22;38310;52.796;6.942;2023-03-01T08:15:34;-1.10;99.90
52381;DHT22;38310;52.796;6.942;2023-03-01T08:18:00;-0.90;99.90
52381;DHT22;38310;52.796;6.942;2023-03-01T08:20:26;0.00;99.90
52381;DHT22;38310;52.796;6.942;2023-03-01T08:22:52;1.10;99.90
52381;DHT22;38310;52.796;6.942;2023-03-01T08:25:17;0.50;99.90
52381;DHT22;38310;52.796;6.942;2023-03-01T08:27:43;0.60;99.90
52381;DHT22;38310;52.796;6.942;2023-03-01T08:30:10;-0.20;99.90
52381;DHT22;38310;52.796;6.942;2023-03-01T08:32:38;-0.20;99.90
52381;DHT22;38310;52.796;6.942;2023-03-01T08:35:04;-0.10;99.90
52381;DHT22;38310;52.796;6.942;2023-03-01T08:37:30;0.00;99.90
52381;DHT22;38310;52.796;6.942;2023-03-01T08:39:59;1.60;99.90
52381;DHT22;38310;52.796;6.942;2023-03-01T08:42:25;0.20;99.90
52381;DHT22;38310;52.796;6.942;2023-03-01T08:44:51;0.30;99.90
52381;DHT22;38310;52.796;6.942;2023-03-01T08:47:17;0.50;99.90
52381;DHT22;38310;52.796;6.942;2023-03-01T08:49:42;0.60;99.90
52381;DHT22;38310;52.796;6.942;2023-03-01T08:52:08;0.80;99.90
52381;DHT22;38310;52.796;6.942;2023-03-01T08:54:34;0.90;99.90
52381;DHT22;38310;52.796;6.942;2023-03-01T08:57:02;1.10;99.90
52381;DHT22;38310;52.796;6.942;2023-03-01T08:59:27;1.40;99.90
52381;DHT22;38310;52.796;6.942;2023-03-01T09:01:55;1.40;99.90
52381;DHT22;38310;52.796;6.942;2023-03-01T09:04:21;2.80;99.90
52381;DHT22;38310;52.796;6.942;2023-03-01T09:06:47;1.70;99.90
52381;DHT22;38310;52.796;6.942;2023-03-01T09:09:16;1.80;99.90
52381;DHT22;38310;52.796;6.942;2023-03-01T09:11:43;1.90;99.90
52381;DHT22;38310;52.796;6.942;2023-03-01T09:14:11;2.50;99.90
52381;DHT22;38310;52.796;6.942;2023-03-01T09:16:37;2.20;99.90
52381;DHT22;38310;52.796;6.942;2023-03-01T09:19:03;2.40;99.90
52381;DHT22;38310;52.796;6.942;2023-03-01T09:21:29;2.80;99.90
52381;DHT22;38310;52.796;6.942;2023-03-01T09:23:56;2.80;99.90
52381;DHT22;38310;52.796;6.942;2023-03-01T09:26:23;2.90;99.90
52381;DHT22;38310;52.796;6.942;2023-03-01T09:28:50;3.00;99.90
52381;DHT22;38310;52.796;6.942;2023-03-01T09:31:18;3.20;99.90
52381;DHT22;38310;52.796;6.942;2023-03-01T09:33:47;3.30;99.90
52381;DHT22;38310;52.796;6.942;2023-03-01T09:36:19;3.50;99.90
52381;DHT22;38310;52.796;6.942;2023-03-01T09:38:46;3.60;99.90
52381;DHT22;38310;52.796;6.942;2023-03-01T09:41:41;4.70;99.90
52381;DHT22;38310;52.796;6.942;2023-03-01T09:44:38;3.90;99.90
52381;DHT22;38310;52.796;6.942;2023-03-01T09:47:12;4.10;99.90
52381;DHT22;38310;52.796;6.942;2023-03-01T09:49:43;4.20;99.90
52381;DHT22;38310;52.796;6.942;2023-03-01T09:52:34;4.40;99.90
52381;DHT22;38310;52.796;6.942;2023-03-01T09:55:05;4.50;99.90
52381;DHT22;38310;52.796;6.942;2023-03-01T09:57:49;4.70;99.90
52381;DHT22;38310;52.796;6.942;2023-03-01T10:00:30;4.80;99.90
52381;DHT22;38310;52.796;6.942;2023-03-01T10:03:10;4.90;99.90
52381;DHT22;38310;52.796;6.942;2023-03-01T10:06:19;5.10;99.90
52381;DHT22;38310;52.796;6.942;2023-03-01T10:11:15;5.40;99.90
52381;DHT22;38310;52.796;6.942;2023-03-01T10:16:52;5.70;99.90
52381;DHT22;38310;52.796;6.942;2023-03-01T10:19:44;5.80;99.90
52381;DHT22;38310;52.796;6.942;2023-03-01T10:22:20;6.00;99.90
52381;DHT22;38310;52.796;6.942;2023-03-01T10:24:51;6.20;99.90
52381;DHT22;38310;52.796;6.942;2023-03-01T10:27:25;6.30;99.90
52381;DHT22;38310;52.796;6.942;2023-03-01T10:30:16;6.40;99.90
52381;DHT22;38310;52.796;6.942;2023-03-01T10:32:45;6.50;99.90
52381;DHT22;38310;52.796;6.942;2023-03-01T10:35:25;6.80;99.90
52381;DHT22;38310;52.796;6.942;2023-03-01T10:38:04;6.90;99.90
52381;DHT22;38310;52.796;6.942;2023-03-01T10:40:32;7.00;99.90
52381;DHT22;38310;52.796;6.942;2023-03-01T10:43:01;7.20;99.90
52381;DHT22;38310;52.796;6.942;2023-03-01T10:48:13;7.60;99.90
52381;DHT22;38310;52.796;6.942;2023-03-01T10:50:48;7.80;99.90
52381;DHT22;38310;52.796;6.942;2023-03-01T10:53:47;7.80;99.90
52381;DHT22;38310;52.796;6.942;2023-03-01T10:56:15;8.00;99.90
52381;DHT22;38310;52.796;6.942;2023-03-01T10:59:04;8.30;99.90
52381;DHT22;38310;52.796;6.942;2023-03-01T11:01:31;8.50;99.90
52381;DHT22;38310;52.796;6.942;2023-03-01T11:06:33;8.70;99.90
52381;DHT22;38310;52.796;6.942;2023-03-01T11:09:23;8.70;99.90
52381;DHT22;38310;52.796;6.942;2023-03-01T11:11:54;8.90;99.90
52381;DHT22;38310;52.796;6.942;2023-03-01T11:16:59;9.30;99.90
52381;DHT22;38310;52.796;6.942;2023-03-01T11:19:26;9.50;99.90
52381;DHT22;38310;52.796;6.942;2023-03-01T11:29:48;10.20;99.90
52381;DHT22;38310;52.796;6.942;2023-03-01T11:32:17;10.30;99.90
52381;DHT22;38310;52.796;6.942;2023-03-01T11:37:28;10.10;99.90
52381;DHT22;38310;52.796;6.942;2023-03-01T11:40:13;10.50;99.90
52381;DHT22;38310;52.796;6.942;2023-03-01T11:42:59;10.70;99.90
52381;DHT22;38310;52.796;6.942;2023-03-01T11:45:35;11.10;99.90
52381;DHT22;38310;52.796;6.942;2023-03-01T11:50:48;11.40;99.90
52381;DHT22;38310;52.796;6.942;2023-03-01T11:56:05;11.80;99.90
52381;DHT22;38310;52.796;6.942;2023-03-01T12:01:53;12.20;99.90
52381;DHT22;38310;52.796;6.942;2023-03-01T12:07:01;12.90;99.90
52381;DHT22;38310;52.796;6.942;2023-03-01T12:09:38;13.00;99.90
52381;DHT22;38310;52.796;6.942;2023-03-01T12:12:23;13.20;99.30
52381;DHT22;38310;52.796;6.942;2023-03-01T12:20:44;13.80;99.90
52381;DHT22;38310;52.796;6.942;2023-03-01T12:26:09;14.20;98.70
52381;DHT22;38310;52.796;6.942;2023-03-01T12:28:45;14.20;97.70
52381;DHT22;38310;52.796;6.942;2023-03-01T12:45:42;15.40;92.50
52381;DHT22;38310;52.796;6.942;2023-03-01T12:51:08;14.70;92.10
52381;DHT22;38310;52.796;6.942;2023-03-01T12:53:46;14.70;93.40
52381;DHT22;38310;52.796;6.942;2023-03-01T12:56:16;14.60;92.50
52381;DHT22;38310;52.796;6.942;2023-03-01T12:59:07;15.20;92.90
52381;DHT22;38310;52.796;6.942;2023-03-01T13:01:51;14.90;90.60
52381;DHT22;38310;52.796;6.942;2023-03-01T13:12:51;15.50;90.10
52381;DHT22;38310;52.796;6.942;2023-03-01T13:17:56;15.70;90.00
52381;DHT22;38310;52.796;6.942;2023-03-01T13:33:44;15.40;89.80
52381;DHT22;38310;52.796;6.942;2023-03-01T13:36:46;15.40;89.60
52381;DHT22;38310;52.796;6.942;2023-03-01T13:39:29;15.40;89.50
52381;DHT22;38310;52.796;6.942;2023-03-01T13:41:58;15.30;86.90
52381;DHT22;38310;52.796;6.942;2023-03-01T13:44:37;15.70;90.70
52381;DHT22;38310;52.796;6.942;2023-03-01T13:49:42;15.90;90.40
52381;DHT22;38310;52.796;6.942;2023-03-01T13:57:43;15.70;87.80
52381;DHT22;38310;52.796;6.942;2023-03-01T14:00:32;16.00;90.10
52381;DHT22;38310;52.796;6.942;2023-03-01T14:03:15;16.20;87.10
52381;DHT22;38310;52.796;6.942;2023-03-01T14:05:43;15.50;87.00
52381;DHT22;38310;52.796;6.942;2023-03-01T14:08:22;15.40;88.90
52381;DHT22;38310;52.796;6.942;2023-03-01T14:10:56;15.30;89.00
52381;DHT22;38310;52.796;6.942;2023-03-01T14:19:16;14.80;86.80
52381;DHT22;38310;52.796;6.942;2023-03-01T14:21:44;14.10;88.60
52381;DHT22;38310;52.796;6.942;2023-03-01T14:24:22;14.00;90.80
52381;DHT22;38310;52.796;6.942;2023-03-01T14:26:49;13.50;88.40
52381;DHT22;38310;52.796;6.942;2023-03-01T14:29:36;13.20;91.20
52381;DHT22;38310;52.796;6.942;2023-03-01T14:32:17;13.10;90.50
52381;DHT22;38310;52.796;6.942;2023-03-01T14:34:45;12.90;91.60
52381;DHT22;38310;52.796;6.942;2023-03-01T14:37:32;12.70;91.90
52381;DHT22;38310;52.796;6.942;2023-03-01T14:40:00;12.30;91.80
52381;DHT22;38310;52.796;6.942;2023-03-01T14:42:34;12.00;92.00
52381;DHT22;38310;52.796;6.942;2023-03-01T14:45:02;11.70;92.20
52381;DHT22;38310;52.796;6.942;2023-03-01T14:47:31;11.40;93.10
52381;DHT22;38310;52.796;6.942;2023-03-01T14:52:35;11.10;93.50
52381;DHT22;38310;52.796;6.942;2023-03-01T14:55:05;10.80;93.80
52381;DHT22;38310;52.796;6.942;2023-03-01T14:57:32;10.60;94.20
52381;DHT22;38310;52.796;6.942;2023-03-01T15:00:01;10.40;94.70
52381;DHT22;38310;52.796;6.942;2023-03-01T15:02:31;10.20;95.20
52381;DHT22;38310;52.796;6.942;2023-03-01T15:05:01;10.10;95.40
52381;DHT22;38310;52.796;6.942;2023-03-01T15:07:34;10.00;95.60
52381;DHT22;38310;52.796;6.942;2023-03-01T15:10:02;9.80;96.10
52381;DHT22;38310;52.796;6.942;2023-03-01T15:14:57;9.60;96.30
52381;DHT22;38310;52.796;6.942;2023-03-01T15:17:33;9.40;96.60
52381;DHT22;38310;52.796;6.942;2023-03-01T15:20:01;9.30;96.80
52381;DHT22;38310;52.796;6.942;2023-03-01T15:22:27;9.30;97.20
52381;DHT22;38310;52.796;6.942;2023-03-01T15:24:53;9.10;97.80
52381;DHT22;38310;52.796;6.942;2023-03-01T15:27:24;9.10;98.20
52381;DHT22;38310;52.796;6.942;2023-03-01T15:29:58;9.00;98.70
52381;DHT22;38310;52.796;6.942;2023-03-01T15:32:30;8.90;99.40
52381;DHT22;38310;52.796;6.942;2023-03-01T15:34:58;8.80;99.90
52381;DHT22;38310;52.796;6.942;2023-03-01T15:37:43;8.60;99.90
52381;DHT22;38310;52.796;6.942;2023-03-01T15:40:28;8.60;99.90
52381;DHT22;38310;52.796;6.942;2023-03-01T15:43:02;8.50;99.90
52381;DHT22;38310;52.796;6.942;2023-03-01T15:45:30;8.40;99.90
52381;DHT22;38310;52.796;6.942;2023-03-01T15:48:24;8.40;99.90
52381;DHT22;38310;52.796;6.942;2023-03-01T15:50:56;8.30;99.90
52381;DHT22;38310;52.796;6.942;2023-03-01T15:53:23;8.20;99.90
52381;DHT22;38310;52.796;6.942;2023-03-01T15:55:49;8.10;99.90
52381;DHT22;38310;52.796;6.942;2023-03-01T15:58:17;8.20;99.90
52381;DHT22;38310;52.796;6.942;2023-03-01T16:00:44;8.10;99.90
52381;DHT22;38310;52.796;6.942;2023-03-01T16:03:13;8.10;99.90
52381;DHT22;38310;52.796;6.942;2023-03-01T16:05:39;8.00;99.90
52381;DHT22;38310;52.796;6.942;2023-03-01T16:08:06;7.90;99.90
52381;DHT22;38310;52.796;6.942;2023-03-01T16:10:33;7.90;99.90
52381;DHT22;38310;52.796;6.942;2023-03-01T16:12:59;7.80;99.90
52381;DHT22;38310;52.796;6.942;2023-03-01T16:15:28;7.70;99.90
52381;DHT22;38310;52.796;6.942;2023-03-01T16:17:54;7.70;99.90
52381;DHT22;38310;52.796;6.942;2023-03-01T16:20:20;7.60;99.90
52381;DHT22;38310;52.796;6.942;2023-03-01T16:22:47;7.60;99.90
52381;DHT22;38310;52.796;6.942;2023-03-01T16:25:15;7.50;99.90
52381;DHT22;38310;52.796;6.942;2023-03-01T16:27:45;7.40;99.90
52381;DHT22;38310;52.796;6.942;2023-03-01T16:30:13;7.40;99.90
52381;DHT22;38310;52.796;6.942;2023-03-01T16:32:44;7.30;99.90
52381;DHT22;38310;52.796;6.942;2023-03-01T16:35:12;7.40;99.90
52381;DHT22;38310;52.796;6.942;2023-03-01T16:37:38;7.20;99.90
52381;DHT22;38310;52.796;6.942;2023-03-01T16:40:05;7.20;99.90
52381;DHT22;38310;52.796;6.942;2023-03-01T16:42:35;7.00;99.90
52381;DHT22;38310;52.796;6.942;2023-03-01T16:45:00;7.00;99.90
52381;DHT22;38310;52.796;6.942;2023-03-01T16:47:28;6.90;99.90
52381;DHT22;38310;52.796;6.942;2023-03-01T16:49:53;6.80;99.90
52381;DHT22;38310;52.796;6.942;2023-03-01T16:52:20;6.70;99.90
52381;DHT22;38310;52.796;6.942;2023-03-01T16:54:46;6.60;99.90
52381;DHT22;38310;52.796;6.942;2023-03-01T16:57:11;6.50;99.90
52381;DHT22;38310;52.796;6.942;2023-03-01T16:59:37;6.50;99.90
52381;DHT22;38310;52.796;6.942;2023-03-01T17:02:10;6.40;99.90
52381;DHT22;38310;52.796;6.942;2023-03-01T17:04:36;6.40;99.90
52381;DHT22;38310;52.796;6.942;2023-03-01T17:07:02;6.30;99.90
52381;DHT22;38310;52.796;6.942;2023-03-01T17:09:28;6.20;99.90
52381;DHT22;38310;52.796;6.942;2023-03-01T17:11:54;6.10;99.90
52381;DHT22;38310;52.796;6.942;2023-03-01T17:14:20;6.00;99.90
52381;DHT22;38310;52.796;6.942;2023-03-01T17:16:46;5.90;99.90
52381;DHT22;38310;52.796;6.942;2023-03-01T17:19:12;5.90;99.90
52381;DHT22;38310;52.796;6.942;2023-03-01T17:21:43;5.80;99.90
52381;DHT22;38310;52.796;6.942;2023-03-01T17:24:09;5.90;99.90
52381;DHT22;38310;52.796;6.942;2023-03-01T17:26:36;5.70;99.90
52381;DHT22;38310;52.796;6.942;2023-03-01T17:29:02;5.60;99.90
52381;DHT22;38310;52.796;6.942;2023-03-01T17:31:33;5.50;99.90
52381;DHT22;38310;52.796;6.942;2023-03-01T17:33:59;5.40;99.90
52381;DHT22;38310;52.796;6.942;2023-03-01T17:36:24;5.20;99.90
52381;DHT22;38310;52.796;6.942;2023-03-01T17:38:50;5.10;99.90
52381;DHT22;38310;52.796;6.942;2023-03-01T17:41:17;5.00;99.90
52381;DHT22;38310;52.796;6.942;2023-03-01T17:43:44;4.90;99.90
52381;DHT22;38310;52.796;6.942;2023-03-01T17:46:10;4.80;99.90